Time;durP1;ratioP1;P1;durP2;ratioP2;P2;SDS_P1;SDS_P2;PMS_P1;PMS_P2;Temp;Humidity;BMP_temperature;BMP_pressure;BME280_temperature;BME280_humidity;BME280_pressure;Samples;Min_cycle;Max_cycle;Signal;HPM_P1;HPM_P2
2020/12/14 00:02:11;;;;;;;2.77;1.83;;;;;;;18.54;47.21;100196.13;5052528;28;20202;-61
2020/12/14 00:04:38;;;;;;;1.87;1.43;;;;;;;18.52;47.20;100198.19;5052484;28;20207;-62
2020/12/14 00:07:04;;;;;;;2.13;1.70;;;;;;;18.51;47.21;100196.50;5051686;28;20188;-58
2020/12/14 00:09:31;;;;;;;1.90;1.67;;;;;;;18.46;47.50;100195.34;5052358;28;20192;-57
2020/12/14 00:11:58;;;;;;;1.60;1.50;;;;;;;18.45;47.08;100204.47;5052376;28;20184;-66
2020/12/14 00:14:24;;;;;;;2.07;1.70;;;;;;;18.41;47.52;100201.28;5052461;28;20646;-59
2020/12/14 00:16:50;;;;;;;1.80;1.50;;;;;;;18.40;46.97;100197.72;5052367;28;20188;-60
2020/12/14 00:19:16;;;;;;;2.27;1.70;;;;;;;18.37;47.60;100205.38;5052268;28;20239;-59
2020/12/14 00:21:42;;;;;;;2.27;1.70;;;;;;;18.37;47.32;100200.81;5052356;28;20511;-59
2020/12/14 00:24:08;;;;;;;1.37;1.27;;;;;;;18.33;47.31;100196.78;5055065;28;20295;-57
2020/12/14 00:26:34;;;;;;;2.20;1.50;;;;;;;18.13;47.41;100170.31;5056341;28;20214;-62
2020/12/14 00:29:00;;;;;;;1.80;1.43;;;;;;;18.29;47.13;100195.44;5038642;28;20579;-62
2020/12/14 00:31:26;;;;;;;1.60;1.37;;;;;;;18.30;47.27;100196.28;5056326;28;20196;-62
2020/12/14 00:33:52;;;;;;;2.07;1.60;;;;;;;18.34;47.32;100200.31;5056105;28;20176;-62
2020/12/14 00:36:18;;;;;;;2.13;1.40;;;;;;;18.39;47.40;100196.03;5056229;28;20227;-62
2020/12/14 00:38:45;;;;;;;1.40;1.30;;;;;;;18.49;47.34;100192.28;5056001;28;20200;-62
2020/12/14 00:41:18;;;;;;;1.73;1.30;;;;;;;18.57;47.63;100186.78;5056003;28;20189;-62
2020/12/14 00:43:44;;;;;;;1.40;1.30;;;;;;;18.67;47.45;100184.69;5056222;28;20222;-62
2020/12/14 00:46:16;;;;;;;1.97;1.40;;;;;;;18.74;47.26;100180.25;5055988;28;20188;-59
2020/12/14 00:48:43;;;;;;;1.20;1.10;;;;;;;18.82;47.16;100176.63;5056142;28;20215;-66
2020/12/14 00:51:09;;;;;;;1.27;1.17;;;;;;;18.85;47.33;100174.38;5055951;28;20601;-66
2020/12/14 00:53:35;;;;;;;1.87;1.40;;;;;;;18.92;46.89;100171.78;5055720;28;20188;-67
2020/12/14 00:56:04;;;;;;;1.33;1.23;;;;;;;18.93;47.17;100173.47;5055853;28;20639;-66
2020/12/14 00:58:30;;;;;;;1.50;1.37;;;;;;;18.94;47.04;100169.75;5054877;28;20227;-66
2020/12/14 01:00:56;;;;;;;1.30;1.20;;;;;;;18.96;46.81;100175.81;5055712;28;20211;-67
2020/12/14 01:03:23;;;;;;;1.50;1.30;;;;;;;18.94;46.74;100172.47;5055540;28;20215;-66
2020/12/14 01:05:52;;;;;;;1.53;1.43;;;;;;;18.93;46.87;100178.91;5055659;28;20216;-66
2020/12/14 01:08:22;;;;;;;1.53;1.40;;;;;;;18.92;46.97;100171.78;5055356;28;20273;-67
2020/12/14 01:10:49;;;;;;;1.37;1.27;;;;;;;18.87;46.91;100169.59;5055540;28;20241;-67
2020/12/14 01:13:15;;;;;;;1.53;1.20;;;;;;;18.83;47.03;100170.16;5055545;28;20177;-67
2020/12/14 01:15:41;;;;;;;1.53;1.37;;;;;;;18.80;47.14;100167.81;5055378;28;20196;-63
2020/12/14 01:18:07;;;;;;;1.33;1.23;;;;;;;18.76;46.97;100167.34;5055285;28;20265;-58
2020/12/14 01:20:33;;;;;;;1.50;1.40;;;;;;;18.75;47.08;100164.81;5055363;28;20180;-58
2020/12/14 01:23:00;;;;;;;1.43;1.27;;;;;;;18.67;46.89;100157.59;5054520;28;20718;-66
2020/12/14 01:25:26;;;;;;;1.57;1.23;;;;;;;18.62;47.33;100154.56;5054313;28;20688;-66
2020/12/14 01:27:52;;;;;;;1.57;1.10;;;;;;;18.59;47.26;100146.78;5054205;28;20215;-62
2020/12/14 01:30:18;;;;;;;1.33;1.23;;;;;;;18.56;46.99;100150.72;5053214;28;20616;-62
2020/12/14 01:32:44;;;;;;;1.33;1.23;;;;;;;18.50;47.06;100151.44;5054127;28;20255;-62
2020/12/14 01:35:10;;;;;;;1.33;1.23;;;;;;;18.45;47.31;100153.81;5052631;28;20177;-63
2020/12/14 01:37:36;;;;;;;1.33;1.23;;;;;;;18.41;47.15;100147.94;5053885;28;20291;-57
2020/12/14 01:40:03;;;;;;;1.27;1.17;;;;;;;18.45;46.98;100148.41;5036374;28;20294;-62
2020/12/14 01:42:29;;;;;;;1.33;1.20;;;;;;;18.47;47.29;100157.22;5053950;28;20226;-63
2020/12/14 01:44:55;;;;;;;1.10;1.00;;;;;;;18.47;47.35;100162.66;5053933;28;20287;-62
2020/12/14 01:47:34;;;;;;;1.50;1.20;;;;;;;18.46;47.13;100158.25;5053789;28;20200;-66
2020/12/14 01:50:01;;;;;;;1.40;1.30;;;;;;;18.47;47.34;100162.66;5053725;28;20703;-62
2020/12/14 01:52:27;;;;;;;1.37;1.20;;;;;;;18.47;47.53;100173.50;5053687;28;20192;-62
2020/12/14 01:54:53;;;;;;;1.10;1.00;;;;;;;18.48;47.09;100164.34;5036059;28;20269;-57
2020/12/14 01:57:20;;;;;;;1.40;1.27;;;;;;;18.48;47.30;100169.75;5053582;28;20204;-58
2020/12/14 01:59:47;;;;;;;1.30;1.20;;;;;;;18.47;47.45;100157.22;5035877;28;20180;-58
2020/12/14 02:02:13;;;;;;;1.40;1.10;;;;;;;18.50;47.46;100162.28;5053531;28;20195;-66
2020/12/14 02:04:39;;;;;;;1.07;0.97;;;;;;;18.52;47.34;100164.81;5053756;28;20228;-65
2020/12/14 02:07:05;;;;;;;1.30;1.20;;;;;;;18.50;47.46;100156.88;5053458;28;20184;-59
2020/12/14 02:09:31;;;;;;;1.33;1.10;;;;;;;18.48;47.35;100142.66;5053415;28;20184;-59
2020/12/14 02:11:57;;;;;;;1.50;1.30;;;;;;;18.47;47.38;100140.97;5052376;28;20188;-59
2020/12/14 02:14:23;;;;;;;1.13;1.03;;;;;;;18.48;46.99;100134.53;5052428;28;20245;-62
2020/12/14 02:16:49;;;;;;;1.00;0.90;;;;;;;18.45;46.96;100126.72;5053196;28;20185;-62
2020/12/14 02:19:15;;;;;;;1.43;1.30;;;;;;;18.44;47.23;100133.16;5053078;28;20208;-67
2020/12/14 02:21:42;;;;;;;1.30;1.10;;;;;;;18.42;47.36;100127.09;5053295;28;20695;-66
2020/12/14 02:24:14;;;;;;;1.20;1.10;;;;;;;18.39;47.17;100132.88;5053201;28;20211;-66
2020/12/14 02:26:41;;;;;;;1.30;1.20;;;;;;;18.38;46.94;100133.91;5053156;28;20242;-62
2020/12/14 02:29:07;;;;;;;1.30;1.20;;;;;;;18.33;47.35;100139.88;5052930;28;20268;-63
2020/12/14 02:31:33;;;;;;;1.20;1.10;;;;;;;18.32;47.03;100137.34;5052902;28;20225;-58
2020/12/14 02:33:59;;;;;;;1.23;1.13;;;;;;;18.29;47.08;100138.56;5051844;28;20230;-63
2020/12/14 02:36:25;;;;;;;1.23;1.13;;;;;;;18.26;47.16;100127.25;5062996;28;20292;-60
2020/12/14 02:38:51;;;;;;;1.07;0.97;;;;;;;18.26;47.76;100130.78;5072645;28;20207;-60
2020/12/14 02:41:18;;;;;;;0.93;0.87;;;;;;;18.08;47.49;100103.16;5071847;28;20668;-66
2020/12/14 02:43:44;;;;;;;1.17;1.07;;;;;;;18.32;47.46;100129.22;5072666;28;20203;-66
2020/12/14 02:46:10;;;;;;;1.20;1.10;;;;;;;18.39;47.71;100122.03;5072291;28;20180;-62
2020/12/14 02:48:36;;;;;;;0.97;0.97;;;;;;;18.47;47.21;100124.72;5072563;28;20775;-62
2020/12/14 02:51:02;;;;;;;1.10;1.10;;;;;;;18.54;47.18;100122.94;5072481;28;20191;-67
2020/12/14 02:53:28;;;;;;;1.23;1.10;;;;;;;18.63;47.60;100121.88;5072523;28;20636;-58
2020/12/14 02:55:54;;;;;;;0.87;0.87;;;;;;;18.67;47.50;100115.06;5072547;28;20270;-58
2020/12/14 02:58:20;;;;;;;1.00;0.90;;;;;;;18.75;47.15;100118.75;5071427;28;20207;-66
2020/12/14 03:00:47;;;;;;;1.10;1.00;;;;;;;18.80;47.36;100116.31;5072361;28;20503;-66
2020/12/14 03:03:13;;;;;;;0.90;0.90;;;;;;;18.82;46.99;100116.97;5072522;28;20223;-60
2020/12/14 03:05:39;;;;;;;0.97;0.97;;;;;;;18.84;47.27;100104.06;5071381;28;20176;-66
2020/12/14 03:08:05;;;;;;;1.00;0.90;;;;;;;18.85;46.89;100105.75;5072132;28;20317;-66
2020/12/14 03:10:31;;;;;;;1.00;0.90;;;;;;;18.84;47.26;100101.34;5072579;28;20271;-67
2020/12/14 03:12:57;;;;;;;0.97;0.93;;;;;;;18.85;46.71;100100.31;5072076;28;20180;-67
2020/12/14 03:15:23;;;;;;;1.37;1.27;;;;;;;18.84;47.06;100101.34;5071095;28;20709;-60
2020/12/14 03:17:49;;;;;;;1.30;1.20;;;;;;;18.81;47.06;100102.56;5071950;28;20274;-58
2020/12/14 03:20:15;;;;;;;1.20;1.10;;;;;;;18.79;46.80;100095.66;5072070;28;20179;-58
2020/12/14 03:22:41;;;;;;;0.90;0.90;;;;;;;18.76;47.07;100094.16;5071970;28;20190;-58
2020/12/14 03:25:07;;;;;;;0.80;0.80;;;;;;;18.74;47.09;100093.50;5072119;28;21031;-59
2020/12/14 03:27:33;;;;;;;1.20;1.10;;;;;;;18.68;47.25;100095.06;5071823;28;20278;-58
2020/12/14 03:29:59;;;;;;;1.20;1.10;;;;;;;18.66;47.10;100091.69;5071861;28;20183;-62
2020/12/14 03:32:25;;;;;;;1.07;0.97;;;;;;;18.60;47.25;100086.97;5071897;28;20651;-66
2020/12/14 03:34:51;;;;;;;0.80;0.80;;;;;;;18.54;47.47;100082.28;5071914;28;20180;-67
2020/12/14 03:37:17;;;;;;;0.77;0.77;;;;;;;18.52;46.95;100088.94;5071840;28;20299;-66
2020/12/14 03:39:44;;;;;;;0.87;0.87;;;;;;;18.55;47.30;100093.97;5071801;28;20194;-66
2020/12/14 03:42:10;;;;;;;0.80;0.80;;;;;;;18.56;47.13;100106.50;5071707;28;20195;-62
2020/12/14 03:44:36;;;;;;;0.97;0.90;;;;;;;18.57;46.88;100108.19;5071558;28;20554;-60
2020/12/14 03:47:02;;;;;;;0.93;0.90;;;;;;;18.55;47.30;100105.66;5071562;28;20186;-66
2020/12/14 03:49:28;;;;;;;1.00;0.90;;;;;;;18.56;47.02;100112.75;5071487;28;20203;-66
2020/12/14 03:51:55;;;;;;;0.80;0.80;;;;;;;18.57;47.06;100111.75;5071616;28;20664;-67
2020/12/14 03:54:21;;;;;;;0.90;0.90;;;;;;;18.57;47.38;100111.75;5071608;28;20183;-66
2020/12/14 03:56:47;;;;;;;1.03;0.93;;;;;;;18.56;47.33;100110.06;5070846;28;21073;-60
2020/12/14 03:59:13;;;;;;;0.70;0.70;;;;;;;18.56;47.18;100101.91;5071484;28;20211;-60
2020/12/14 04:01:39;;;;;;;0.97;0.90;;;;;;;18.55;47.23;100108.38;5071742;28;20258;-60
2020/12/14 04:04:06;;;;;;;0.70;0.70;;;;;;;18.54;47.04;100103.97;5071624;28;20219;-60
2020/12/14 04:06:32;;;;;;;1.00;0.90;;;;;;;18.52;47.27;100103.31;5071420;28;20627;-60
2020/12/14 04:08:58;;;;;;;0.93;0.90;;;;;;;18.49;47.21;100111.81;5071275;28;20218;-60
2020/12/14 04:11:24;;;;;;;1.13;0.83;;;;;;;18.46;47.27;100112.19;5071292;28;20179;-60
2020/12/14 04:13:50;;;;;;;0.97;0.87;;;;;;;18.43;47.21;100109.81;5071300;28;20328;-60
2020/12/14 04:16:16;;;;;;;0.80;0.80;;;;;;;18.41;47.30;100109.16;5071399;28;20172;-67
2020/12/14 04:18:42;;;;;;;0.80;0.80;;;;;;;18.40;47.50;100108.31;5071355;28;20662;-66
2020/12/14 04:21:09;;;;;;;1.00;0.90;;;;;;;18.41;47.40;100109.16;5070362;28;20176;-60
2020/12/14 04:23:35;;;;;;;1.10;0.90;;;;;;;18.36;47.36;100098.88;5071143;28;20693;-59
2020/12/14 04:26:02;;;;;;;0.90;0.90;;;;;;;18.35;47.02;100094.47;5070118;28;20233;-63
2020/12/14 04:28:28;;;;;;;0.87;0.80;;;;;;;18.36;46.98;100098.88;5071013;28;20268;-58
2020/12/14 04:30:54;;;;;;;1.00;0.90;;;;;;;18.36;46.93;100095.31;5070135;28;20180;-67
2020/12/14 04:33:20;;;;;;;0.80;0.80;;;;;;;18.35;47.39;100090.91;5071175;28;20172;-58
2020/12/14 04:35:46;;;;;;;1.17;0.97;;;;;;;18.30;46.98;100096.91;5071336;28;20207;-63
2020/12/14 04:38:12;;;;;;;0.80;0.80;;;;;;;18.30;47.27;100101.47;5071201;28;20203;-66
2020/12/14 04:40:38;;;;;;;0.80;0.80;;;;;;;18.29;47.23;100095.22;5070148;28;20192;-56
2020/12/14 04:43:04;;;;;;;1.00;0.90;;;;;;;18.34;47.44;100097.38;5071072;28;20254;-66
2020/12/14 04:45:30;;;;;;;0.80;0.80;;;;;;;18.39;47.44;100094.94;5070232;28;20191;-63
2020/12/14 04:47:57;;;;;;;1.00;0.90;;;;;;;18.47;47.28;100086.78;5053489;28;20203;-66
2020/12/14 04:50:24;;;;;;;0.70;0.70;;;;;;;18.56;47.40;100084.81;5070979;28;20207;-58
2020/12/14 04:52:50;;;;;;;0.83;0.83;;;;;;;18.65;47.14;100089.16;5070221;28;20506;-58
2020/12/14 04:55:21;;;;;;;0.93;0.80;;;;;;;18.73;47.13;100089.09;5070087;28;20183;-58
2020/12/14 04:57:47;;;;;;;0.80;0.80;;;;;;;18.79;47.08;100090.22;5070912;28;20191;-58
2020/12/14 05:00:13;;;;;;;0.87;0.87;;;;;;;18.87;47.03;100090.13;5071020;28;20904;-66
2020/12/14 05:02:40;;;;;;;0.70;0.70;;;;;;;18.92;47.25;100082.28;5070841;28;20168;-63
2020/12/14 05:05:09;;;;;;;0.87;0.87;;;;;;;18.94;47.01;100089.22;5070853;28;20264;-59
2020/12/14 05:07:42;;;;;;;0.70;0.70;;;;;;;18.97;46.95;100085.28;5070604;28;20209;-60
2020/12/14 05:10:11;;;;;;;1.00;0.90;;;;;;;18.99;47.08;100083.25;5074121;28;20195;-58
2020/12/14 05:12:41;;;;;;;0.80;0.80;;;;;;;18.99;47.18;100086.78;5074612;28;20277;-60
2020/12/14 05:15:15;;;;;;;0.67;0.67;;;;;;;18.97;47.09;100083.44;5074521;28;20183;-60
2020/12/14 05:17:41;;;;;;;0.77;0.77;;;;;;;18.98;47.09;100086.97;5074595;28;20207;-63
2020/12/14 05:20:18;;;;;;;0.60;0.60;;;;;;;18.94;47.10;100091.09;5073531;28;20192;-67
2020/12/14 05:23:19;;;;;;;0.77;0.77;;;;;;;18.93;46.95;100092.13;5074376;28;20290;-63
2020/12/14 05:25:46;;;;;;;0.70;0.70;;;;;;;18.89;47.11;100091.63;5032304;28;20275;-58
2020/12/14 05:28:16;;;;;;;0.90;0.80;;;;;;;18.87;46.86;100082.00;5061001;28;20223;-58
2020/12/14 05:30:44;;;;;;;0.77;0.60;;;;;;;18.81;46.85;100089.00;5074164;28;20275;-58
2020/12/14 05:33:11;;;;;;;1.00;0.87;;;;;;;18.74;47.04;100088.06;5056940;28;20262;-63
2020/12/14 05:35:41;;;;;;;0.67;0.67;;;;;;;18.70;47.17;100092.19;5074297;28;20213;-63
2020/12/14 05:38:17;;;;;;;0.87;0.80;;;;;;;18.63;47.14;100092.06;5074113;28;20565;-67
2020/12/14 05:40:47;;;;;;;0.70;0.70;;;;;;;18.61;47.34;100085.94;5074108;28;20182;-63
2020/12/14 05:43:14;;;;;;;0.60;0.60;;;;;;;18.52;47.39;100078.94;5073804;28;20587;-63
2020/12/14 05:45:41;;;;;;;0.70;0.70;;;;;;;18.48;47.36;100087.63;5073738;28;20180;-63
2020/12/14 05:48:22;;;;;;;0.70;0.70;;;;;;;18.43;47.09;100080.00;5073690;28;20279;-63
2020/12/14 05:50:48;;;;;;;0.80;0.60;;;;;;;18.41;47.13;100082.06;5073614;28;20344;-63
2020/12/14 05:53:16;;;;;;;0.60;0.60;;;;;;;18.45;47.03;100079.81;5073844;28;20628;-60
2020/12/14 05:55:43;;;;;;;0.90;0.90;;;;;;;18.47;47.12;100085.94;5056499;28;20184;-66
2020/12/14 05:58:09;;;;;;;0.60;0.60;;;;;;;18.46;46.93;100076.97;5056416;28;20206;-62
2020/12/14 06:00:35;;;;;;;0.77;0.77;;;;;;;18.46;47.24;100079.66;5056348;28;20183;-63
2020/12/14 06:03:01;;;;;;;0.70;0.70;;;;;;;18.47;47.50;100081.34;5056218;28;20199;-63
2020/12/14 06:05:27;;;;;;;0.60;0.60;;;;;;;18.47;47.34;100075.94;5056089;28;20261;-66
2020/12/14 06:07:59;;;;;;;0.80;0.80;;;;;;;18.47;47.43;100070.50;5055590;28;20195;-60
2020/12/14 06:10:25;;;;;;;0.73;0.73;;;;;;;18.47;47.16;100070.50;5072751;28;20172;-60
2020/12/14 06:12:51;;;;;;;0.53;0.53;;;;;;;18.48;47.43;100074.91;5055743;28;20184;-60
2020/12/14 06:15:18;;;;;;;0.73;0.73;;;;;;;18.49;47.58;100076.59;5055885;28;20627;-60
2020/12/14 06:17:46;;;;;;;0.60;0.60;;;;;;;18.50;47.71;100080.97;5073301;28;20223;-62
2020/12/14 06:20:23;;;;;;;0.50;0.50;;;;;;;18.51;47.06;100088.09;5072512;28;20678;-63
2020/12/14 06:23:00;;;;;;;0.67;0.67;;;;;;;18.49;47.13;100079.31;5072897;28;20187;-63
2020/12/14 06:25:26;;;;;;;0.77;0.77;;;;;;;18.48;47.50;100080.31;5072457;28;20283;-60
2020/12/14 06:27:52;;;;;;;0.70;0.70;;;;;;;18.48;47.28;100083.03;5072003;28;20200;-60
2020/12/14 06:30:27;;;;;;;0.77;0.73;;;;;;;18.48;47.36;100084.91;5072040;28;20341;-63
2020/12/14 06:33:01;;;;;;;0.67;0.67;;;;;;;18.46;47.10;100082.38;5072945;28;20197;-60
2020/12/14 06:35:43;;;;;;;0.63;0.63;;;;;;;18.42;46.99;100084.59;5073356;28;20184;-58
2020/12/14 06:38:09;;;;;;;0.50;0.50;;;;;;;18.40;47.57;100088.50;5072886;28;20277;-58
2020/12/14 06:40:54;;;;;;;0.70;0.70;;;;;;;18.34;47.43;100081.13;5072872;28;20190;-62
2020/12/14 06:43:33;;;;;;;0.90;0.87;;;;;;;18.35;47.04;100093.63;5072752;28;20206;-57
2020/12/14 06:46:01;;;;;;;0.67;0.67;;;;;;;18.30;47.40;100096.06;5072741;28;20214;-58
2020/12/14 06:48:40;;;;;;;0.60;0.60;;;;;;;18.30;47.25;100091.47;5072641;28;20187;-60
2020/12/14 06:51:13;;;;;;;0.70;0.70;;;;;;;18.28;47.14;100103.53;5072546;28;20226;-60
2020/12/14 06:53:44;;;;;;;0.60;0.60;;;;;;;18.25;47.60;100099.31;5072676;28;20214;-57
2020/12/14 06:56:11;;;;;;;0.93;0.80;;;;;;;18.28;47.42;100098.94;5071622;28;20625;-62
2020/12/14 06:58:47;;;;;;;0.60;0.60;;;;;;;18.34;47.24;100108.22;5071657;28;20290;-62
2020/12/14 07:01:38;;;;;;;0.77;0.77;;;;;;;18.42;47.56;100102.72;5072511;28;20194;-66
2020/12/14 07:04:31;;;;;;;0.70;0.67;;;;;;;18.50;47.70;100097.25;5072219;28;20263;-66
2020/12/14 07:07:06;;;;;;;0.70;0.70;;;;;;;18.62;47.63;100105.75;5072165;28;20198;-66
2020/12/14 07:09:33;;;;;;;0.60;0.60;;;;;;;18.69;47.07;100099.47;5056052;28;20637;-66
2020/12/14 07:12:11;;;;;;;0.70;0.70;;;;;;;18.78;47.49;100108.38;5072391;28;20211;-67
2020/12/14 07:14:47;;;;;;;0.50;0.50;;;;;;;18.85;47.52;100116.59;5072281;28;20250;-63
2020/12/14 07:17:27;;;;;;;0.50;0.50;;;;;;;18.92;47.21;100117.53;5072174;28;20834;-67
2020/12/14 07:19:57;;;;;;;0.83;0.60;;;;;;;18.96;46.94;100121.59;5072252;28;20183;-58
2020/12/14 07:22:33;;;;;;;0.60;0.60;;;;;;;18.97;46.91;100121.41;5071213;28;20665;-58
2020/12/14 07:25:05;;;;;;;0.70;0.70;;;;;;;18.99;46.86;100124.75;5071091;28;20219;-59
2020/12/14 07:27:32;;;;;;;0.60;0.60;;;;;;;18.99;47.05;100129.34;5071869;28;20679;-60
2020/12/14 07:30:04;;;;;;;0.50;0.50;;;;;;;18.98;46.80;100135.78;5071979;28;20199;-63
2020/12/14 07:32:30;;;;;;;0.47;0.47;;;;;;;18.99;46.63;100141.03;5071926;28;20183;-58
2020/12/14 07:34:57;;;;;;;0.70;0.63;;;;;;;18.95;47.01;100141.59;5071833;28;20635;-60
2020/12/14 07:37:23;;;;;;;0.50;0.50;;;;;;;18.95;46.95;100130.75;5071638;28;20203;-66
2020/12/14 07:39:50;;;;;;;0.47;0.47;;;;;;;18.90;46.79;100133.16;5071572;28;20525;-63
2020/12/14 07:42:23;;;;;;;0.50;0.50;;;;;;;18.87;46.92;100126.22;5070713;28;20180;-63
2020/12/14 07:44:49;;;;;;;0.80;0.80;;;;;;;18.81;47.13;100131.56;5071741;28;20215;-63
2020/12/14 07:47:21;;;;;;;0.67;0.67;;;;;;;18.75;47.23;100133.13;5071712;28;20184;-63
2020/12/14 07:49:48;;;;;;;0.50;0.50;;;;;;;18.73;47.24;100142.47;5071633;28;20238;-63
2020/12/14 07:52:27;;;;;;;0.97;0.60;;;;;;;18.67;47.13;100146.75;5054358;28;20207;-62
2020/12/14 07:55:00;;;;;;;0.80;0.80;;;;;;;18.63;46.92;100146.28;5072187;28;20184;-62
2020/12/14 07:57:31;;;;;;;0.73;0.73;;;;;;;18.57;47.30;100146.97;5070665;28;20198;-63
2020/12/14 07:59:57;;;;;;;0.77;0.77;;;;;;;18.51;47.19;100149.56;5071664;28;20213;-62
2020/12/14 08:02:24;;;;;;;0.70;0.70;;;;;;;18.46;47.22;100163.69;5071559;28;20252;-63
2020/12/14 08:04:50;;;;;;;0.60;0.60;;;;;;;18.51;47.36;100160.41;5053772;28;20286;-63
2020/12/14 08:07:17;;;;;;;0.60;0.60;;;;;;;18.53;47.23;100161.06;5071383;28;20199;-63
2020/12/14 08:09:45;;;;;;;0.60;0.60;;;;;;;18.51;47.18;100141.44;5054062;28;20543;-62
2020/12/14 08:12:12;;;;;;;0.63;0.50;;;;;;;18.52;47.24;100162.94;5071510;28;20252;-63
2020/12/14 08:14:38;;;;;;;0.50;0.50;;;;;;;18.51;47.22;100185.66;5054019;28;20187;-63
2020/12/14 08:17:09;;;;;;;0.60;0.60;;;;;;;18.52;47.46;100184.63;5071220;28;20234;-63
2020/12/14 08:19:36;;;;;;;5.00;2.87;;;;;;;18.45;46.86;100189.06;5070274;28;20171;-65
2020/12/14 08:22:10;;;;;;;4.63;3.23;;;;;;;18.14;46.86;100193.66;5071246;28;20556;-65
2020/12/14 08:24:37;;;;;;;4.57;3.30;;;;;;;17.87;46.80;100186.88;5071140;28;20211;-65
2020/12/14 08:27:44;;;;;;;4.80;3.50;;;;;;;17.60;47.93;100180.88;5071249;28;20321;-64
2020/12/14 08:30:11;;;;;;;4.53;3.10;;;;;;;17.46;48.26;100177.00;5069303;28;20687;-65
2020/12/14 08:32:37;;;;;;;3.60;3.07;;;;;;;17.30;48.95;100171.66;5071615;28;20236;-65
2020/12/14 08:35:23;;;;;;;5.73;3.47;;;;;;;17.08;49.19;100170.53;5071288;28;20624;-65
2020/12/14 08:37:49;;;;;;;5.13;3.30;;;;;;;16.98;49.41;100171.72;5071221;28;20207;-66
2020/12/14 08:40:15;;;;;;;4.67;3.20;;;;;;;16.85;49.44;100170.38;5070230;28;20262;-63
2020/12/14 08:42:41;;;;;;;4.20;3.23;;;;;;;16.69;49.54;100175.78;5071140;28;20194;-61
2020/12/14 08:45:14;;;;;;;5.50;3.13;;;;;;;16.71;49.63;100179.16;5074724;28;20581;-61
2020/12/14 08:47:41;;;;;;;3.03;2.50;;;;;;;16.84;49.28;100181.38;5075095;28;20203;-61
2020/12/14 08:50:08;;;;;;;2.90;2.60;;;;;;;17.02;49.58;100171.19;5074957;28;20195;-61
2020/12/14 08:52:34;;;;;;;5.13;2.40;;;;;;;17.18;48.89;100181.16;5074974;28;20179;-61
2020/12/14 08:55:00;;;;;;;3.30;2.13;;;;;;;17.37;48.91;100177.22;5074767;28;20259;-61
2020/12/14 08:57:30;;;;;;;2.40;2.20;;;;;;;17.55;49.09;100185.13;5074676;28;20203;-58
2020/12/14 09:00:04;;;;;;;4.30;2.20;;;;;;;17.73;48.60;100196.56;5074819;28;20233;-58
2020/12/14 09:02:30;;;;;;;3.37;1.90;;;;;;;17.90;48.48;100192.78;5074802;28;20542;-61
2020/12/14 09:04:57;;;;;;;1.97;1.67;;;;;;;18.04;48.65;100191.19;5074704;28;20239;-59
2020/12/14 09:07:27;;;;;;;4.00;1.80;;;;;;;18.19;48.16;100192.09;5074603;28;20222;-56
2020/12/14 09:09:53;;;;;;;2.73;1.80;;;;;;;18.32;47.90;100188.81;5075003;28;20188;-62
2020/12/14 09:12:19;;;;;;;2.90;1.90;;;;;;;18.43;47.74;100193.81;5073822;28;20180;-61
2020/12/14 09:14:45;;;;;;;2.07;1.57;;;;;;;18.55;47.67;100197.81;5074689;28;20179;-56
2020/12/14 09:17:18;;;;;;;2.37;1.60;;;;;;;18.67;47.74;100201.78;5068008;28;20184;-56
2020/12/14 09:19:53;;;;;;;1.93;1.67;;;;;;;18.79;47.58;100198.69;5074181;28;20666;-67
2020/12/14 09:22:22;;;;;;;1.87;1.60;;;;;;;18.89;47.65;100210.09;5074544;28;20561;-61
2020/12/14 09:24:49;;;;;;;1.60;1.40;;;;;;;18.98;47.61;100203.59;5074438;28;20227;-61
2020/12/14 09:27:15;;;;;;;2.97;1.53;;;;;;;19.09;47.20;100199.59;5074224;28;20237;-61
2020/12/14 09:29:41;;;;;;;1.70;1.40;;;;;;;19.19;47.42;100206.47;5074266;28;20517;-70
2020/12/14 09:32:09;;;;;;;1.63;1.50;;;;;;;19.32;47.72;100203.94;5040124;28;20187;-74
2020/12/14 09:34:36;;;;;;;1.40;1.30;;;;;;;19.44;48.15;100209.75;5056787;28;20179;-66
2020/12/14 09:37:02;;;;;;;2.17;1.40;;;;;;;19.55;48.25;100211.19;5039896;28;20211;-67
2020/12/14 09:39:29;;;;;;;1.70;1.27;;;;;;;19.66;48.27;100207.19;5073120;28;20692;-69
2020/12/14 09:41:55;;;;;;;2.53;1.33;;;;;;;19.76;48.13;100214.00;5073081;28;20234;-61
2020/12/14 09:44:21;;;;;;;1.50;1.33;;;;;;;19.86;48.31;100217.25;5074160;28;20257;-69
2020/12/14 09:46:48;;;;;;;1.60;1.50;;;;;;;19.94;48.36;100227.19;5073200;28;20205;-69
2020/12/14 09:49:14;;;;;;;2.43;1.40;;;;;;;20.01;48.42;100225.41;5073244;28;20196;-69
2020/12/14 09:51:40;;;;;;;3.20;1.50;;;;;;;20.07;48.55;100221.06;5072076;28;20878;-69
2020/12/14 09:54:06;;;;;;;2.23;1.50;;;;;;;20.19;48.07;100233.16;5073073;28;20184;-69
2020/12/14 09:56:33;;;;;;;2.87;1.50;;;;;;;20.27;47.89;100232.19;5072712;28;20222;-68
2020/12/14 09:58:59;;;;;;;1.20;1.10;;;;;;;20.34;47.54;100235.81;5073583;28;20242;-69
2020/12/14 10:01:27;;;;;;;2.23;1.40;;;;;;;20.39;47.60;100236.13;5073499;28;20271;-69
2020/12/14 10:03:54;;;;;;;1.37;1.27;;;;;;;20.45;47.29;100230.78;5073464;28;20280;-69
2020/12/14 10:06:20;;;;;;;3.27;1.10;;;;;;;20.52;47.11;100231.69;5073843;28;20217;-69
2020/12/14 10:08:46;;;;;;;1.97;1.40;;;;;;;20.59;47.23;100225.50;5073575;28;20207;-58
2020/12/14 10:11:12;;;;;;;2.30;1.40;;;;;;;20.64;46.93;100239.34;5056574;28;20190;-59
2020/12/14 10:13:43;;;;;;;3.27;1.60;;;;;;;20.68;46.93;100237.91;5073425;28;20505;-59
2020/12/14 10:16:12;;;;;;;1.73;1.40;;;;;;;20.76;46.92;100237.78;5056234;28;20221;-57
2020/12/14 10:18:38;;;;;;;3.00;1.50;;;;;;;20.81;46.86;100240.75;5072298;28;20519;-57
2020/12/14 10:21:06;;;;;;;1.33;1.20;;;;;;;20.87;46.92;100236.44;5055960;28;20190;-63
2020/12/14 10:23:33;;;;;;;1.57;1.27;;;;;;;20.91;46.82;100244.00;5073396;28;20207;-59
2020/12/14 10:25:59;;;;;;;1.30;1.20;;;;;;;20.97;46.56;100228.78;5073380;28;20195;-59
2020/12/14 10:28:25;;;;;;;1.37;1.20;;;;;;;21.01;46.69;100225.47;5073392;28;20203;-58
2020/12/14 10:30:51;;;;;;;1.47;1.20;;;;;;;21.07;46.68;100234.75;5072277;28;20278;-57
2020/12/14 10:33:18;;;;;;;1.63;1.27;;;;;;;21.11;46.62;100220.53;5072210;28;20176;-69
2020/12/14 10:35:45;;;;;;;1.70;1.33;;;;;;;21.18;46.66;100219.75;5072186;28;20623;-66
2020/12/14 10:38:14;;;;;;;1.90;1.30;;;;;;;21.21;46.54;100222.91;5055240;28;20213;-63
2020/12/14 10:40:40;;;;;;;1.80;1.70;;;;;;;21.25;46.22;100220.66;5072833;28;20183;-62
2020/12/14 10:43:06;;;;;;;1.33;1.23;;;;;;;21.28;46.67;100214.81;5072675;28;20243;-63
2020/12/14 10:45:32;;;;;;;2.33;1.40;;;;;;;21.29;46.50;100211.91;5073019;28;20186;-59
2020/12/14 10:47:59;;;;;;;1.40;1.30;;;;;;;21.32;46.44;100216.13;5055087;28;20540;-59
2020/12/14 10:50:26;;;;;;;1.90;1.33;;;;;;;21.35;46.19;100213.00;5071731;28;20235;-71
2020/12/14 10:52:52;;;;;;;1.70;1.30;;;;;;;21.36;46.47;100218.25;5072690;28;20175;-70
2020/12/14 10:55:19;;;;;;;2.77;1.47;;;;;;;21.39;46.34;100206.97;5072643;28;20340;-63
2020/12/14 10:57:48;;;;;;;1.50;1.40;;;;;;;21.43;46.25;100202.78;5072507;28;20207;-63
2020/12/14 11:00:16;;;;;;;1.20;1.07;;;;;;;21.47;46.55;100197.78;5072623;28;20194;-60
2020/12/14 11:02:42;;;;;;;1.73;1.50;;;;;;;21.50;46.22;100200.09;5071877;28;20187;-60
2020/12/14 11:05:09;;;;;;;1.87;1.50;;;;;;;21.53;46.44;100182.50;5072597;28;20246;-60
2020/12/14 11:07:35;;;;;;;1.57;1.30;;;;;;;21.57;46.47;100187.38;5072468;28;20218;-71
2020/12/14 11:10:02;;;;;;;2.50;1.47;;;;;;;21.58;46.40;100185.50;5072903;28;20208;-71
2020/12/14 11:12:28;;;;;;;1.50;1.40;;;;;;;21.61;46.35;100196.84;5071787;28;20258;-70
2020/12/14 11:14:54;;;;;;;1.33;1.23;;;;;;;21.65;46.33;100181.75;5072592;28;20187;-70
2020/12/14 11:17:21;;;;;;;1.90;1.30;;;;;;;21.69;46.14;100174.03;5072196;28;20210;-70
2020/12/14 11:19:47;;;;;;;1.30;1.20;;;;;;;21.72;46.23;100179.91;5072371;28;20624;-70
2020/12/14 11:22:13;;;;;;;2.20;1.50;;;;;;;21.74;46.25;100177.81;5072235;28;20217;-60
2020/12/14 11:24:39;;;;;;;1.50;1.37;;;;;;;21.79;46.05;100176.41;5072020;28;20239;-59
2020/12/14 11:27:05;;;;;;;1.60;1.17;;;;;;;21.82;46.19;100176.84;5072058;28;20191;-60
2020/12/14 11:29:31;;;;;;;1.43;1.33;;;;;;;21.84;46.24;100171.19;5071103;28;20187;-59